createdAt,value
2019-02-10T00:04:44.238Z,1000.0
2019-02-10T00:15:04.689Z,999.7
2019-02-10T00:25:53.940Z,999.5
2019-02-10T00:36:56.579Z,999.2
2019-02-10T00:47:14.258Z,999.1
2019-02-10T00:58:04.872Z,999.0
2019-02-10T01:09:05.693Z,998.8
2019-02-10T01:20:01.355Z,998.6
2019-02-10T01:30:52.280Z,998.3
2019-02-10T01:41:38.047Z,998.0
2019-02-10T01:51:51.862Z,997.8
2019-02-10T02:02:04.787Z,997.5
2019-02-10T02:12:17.946Z,997.4
2019-02-10T02:22:33.904Z,997.2
2019-02-10T02:32:47.495Z,997.0
2019-02-10T02:43:00.771Z,996.8
2019-02-10T02:53:45.354Z,996.5
2019-02-10T03:04:33.818Z,996.2
2019-02-10T03:15:00.812Z,995.9
2019-02-10T03:25:14.932Z,995.6
2019-02-10T03:35:59.440Z,995.4
2019-02-10T03:46:19.968Z,995.1
2019-02-10T03:56:34.217Z,994.8
2019-02-10T04:06:52.849Z,994.5
2019-02-10T04:17:06.289Z,994.0
2019-02-10T04:27:30.345Z,993.7
2019-02-10T04:37:46.015Z,993.4
2019-02-10T04:48:01.165Z,993.1
2019-02-10T04:58:15.524Z,992.5
2019-02-10T05:09:00.964Z,992.0
2019-02-10T05:19:14.283Z,991.6
2019-02-10T05:29:25.558Z,991.0
2019-02-10T05:39:38.827Z,990.6
2019-02-10T05:49:52.158Z,990.3
2019-02-10T06:01:06.916Z,989.9
2019-02-10T06:11:51.559Z,989.4
2019-02-10T06:22:36.032Z,989.1
2019-02-10T06:32:49.774Z,988.9
2019-02-10T06:43:05.586Z,988.6
2019-02-10T06:53:19.336Z,988.2
2019-02-10T07:04:10.075Z,987.3
2019-02-10T07:14:23.434Z,987.0
2019-02-10T07:25:21.691Z,986.8
2019-02-10T07:35:35.594Z,986.6
2019-02-10T07:45:48.572Z,986.4
2019-02-10T07:56:01.829Z,986.0
2019-02-10T08:06:30.592Z,985.6
2019-02-10T08:17:17.910Z,985.4
2019-02-10T08:28:44.741Z,985.1
2019-02-10T08:38:57.986Z,985.0
2019-02-10T08:49:20.636Z,984.7
2019-02-10T09:00:06.195Z,984.6
2019-02-10T09:10:52.860Z,984.4
2019-02-10T09:21:06.480Z,984.2
2019-02-10T09:31:20.482Z,984.0
2019-02-10T09:42:08.535Z,983.8
2019-02-10T09:52:21.998Z,983.7
2019-02-10T10:03:06.696Z,983.5
2019-02-10T10:13:20.507Z,983.5
2019-02-10T10:24:08.221Z,983.4
2019-02-10T10:35:39.603Z,983.4
2019-02-10T10:47:13.702Z,983.2
2019-02-10T11:00:11.048Z,983.1
2019-02-10T11:10:56.357Z,983.0
2019-02-10T11:21:42.793Z,982.8
2019-02-10T11:33:48.867Z,982.7
2019-02-10T11:47:14.342Z,982.8
2019-02-10T11:57:27.595Z,982.7
2019-02-10T12:07:46.161Z,982.7
2019-02-10T12:18:38.626Z,982.7
2019-02-10T12:29:49.644Z,982.9
2019-02-10T12:40:05.419Z,983.0
2019-02-10T12:50:53.711Z,983.1
2019-02-10T13:01:09.208Z,983.0
2019-02-10T13:11:23.226Z,982.9
2019-02-10T13:21:38.464Z,983.0
2019-02-10T13:32:27.237Z,982.9
2019-02-10T13:42:41.624Z,983.3
2019-02-10T13:53:11.890Z,983.2
2019-02-10T14:04:11.386Z,983.5
2019-02-10T14:15:01.211Z,983.6
2019-02-10T14:25:48.726Z,983.8
2019-02-10T14:36:10.234Z,984.1
2019-02-10T14:46:58.100Z,984.1
2019-02-10T14:57:45.203Z,984.2
2019-02-10T15:07:59.598Z,984.2
2019-02-10T15:18:13.011Z,984.3
2019-02-10T15:28:26.131Z,984.3
2019-02-10T15:39:12.808Z,984.5
2019-02-10T15:49:25.976Z,984.6
2019-02-10T15:59:39.389Z,984.6
2019-02-10T16:09:53.001Z,984.8
2019-02-10T16:20:26.713Z,985.0
2019-02-10T16:30:43.324Z,985.0
2019-02-10T16:41:05.913Z,985.1
2019-02-10T16:51:20.642Z,985.4
2019-02-10T17:02:05.534Z,985.5
2019-02-10T17:12:30.115Z,985.8
2019-02-10T17:23:15.518Z,986.1
2019-02-10T17:33:26.556Z,986.3
2019-02-10T17:44:11.407Z,986.6
2019-02-10T17:54:24.803Z,987.0
2019-02-10T18:57:30.752Z,988.7
2019-02-10T19:09:32.782Z,989.0
2019-02-10T19:20:03.601Z,989.3
2019-02-10T19:31:45.026Z,989.8
2019-02-10T19:43:41.733Z,990.1
2019-02-10T19:55:47.004Z,990.4
2019-02-10T20:06:52.112Z,990.7
2019-02-10T20:26:53.885Z,991.0
2019-02-10T20:40:18.089Z,991.8
2019-02-10T20:50:31.627Z,992.0
2019-02-10T21:00:44.677Z,992.3
2019-02-10T21:11:43.162Z,992.7
2019-02-10T21:22:53.262Z,993.0
2019-02-10T21:33:38.053Z,993.3
2019-02-10T21:43:51.654Z,993.5
2019-02-10T21:54:05.610Z,993.9
2019-02-10T22:04:50.414Z,994.2
2019-02-10T22:15:42.764Z,994.5
2019-02-10T22:25:56.797Z,994.8
2019-02-10T22:36:12.866Z,995.1
2019-02-10T22:46:26.380Z,995.4
2019-02-10T22:56:40.429Z,995.7
2019-02-10T23:07:28.878Z,996.1
2019-02-10T23:17:38.265Z,996.3
2019-02-10T23:27:52.144Z,996.7
2019-02-10T23:38:05.604Z,997.1
2019-02-10T23:48:52.838Z,997.5
2019-02-10T23:59:06.091Z,997.8
